createdAt,value
2023-06-15T00:00:47.358Z,85773.38
2023-06-15T00:03:13.699Z,85770.91
2023-06-15T00:05:40.006Z,85769.50
2023-06-15T00:08:06.188Z,85770.22
2023-06-15T00:10:32.338Z,85770.72
2023-06-15T00:12:58.495Z,85771.91
2023-06-15T00:15:24.653Z,85772.03
2023-06-15T00:17:50.847Z,85771.00
2023-06-15T00:20:17.013Z,85771.00
2023-06-15T00:22:43.173Z,85777.31
2023-06-15T00:25:09.346Z,85778.16
2023-06-15T00:27:35.505Z,85771.47
2023-06-15T00:30:01.672Z,85773.59
2023-06-15T00:32:27.939Z,85774.91
2023-06-15T00:34:54.274Z,85779.78
2023-06-15T00:37:20.433Z,85778.75
2023-06-15T00:39:46.598Z,85775.56
2023-06-15T00:42:12.741Z,85780.75
2023-06-15T00:44:38.915Z,85776.53
2023-06-15T00:47:05.107Z,85776.75
2023-06-15T00:49:31.304Z,85780.50
2023-06-15T00:51:57.447Z,85780.06
2023-06-15T00:54:23.620Z,85786.84
2023-06-15T00:56:49.785Z,85790.31
2023-06-15T00:59:15.931Z,85782.06
2023-06-15T01:01:42.113Z,85781.47
2023-06-15T01:04:08.320Z,85779.84
2023-06-15T01:06:34.507Z,85788.97
2023-06-15T01:09:00.653Z,85791.50
2023-06-15T01:11:28.592Z,85784.13
2023-06-15T01:13:56.665Z,85783.44
2023-06-15T01:16:22.835Z,85779.06
2023-06-15T01:18:48.987Z,85779.56
2023-06-15T01:21:15.152Z,85780.72
2023-06-15T01:23:41.319Z,85781.16
2023-06-15T01:26:07.481Z,85782.94
2023-06-15T01:28:33.643Z,85779.00
2023-06-15T01:30:59.837Z,85780.28
2023-06-15T01:33:26.026Z,85774.75
2023-06-15T01:35:52.190Z,85778.69
2023-06-15T01:38:18.361Z,85775.00
2023-06-15T01:40:44.534Z,85777.88
2023-06-15T01:43:10.693Z,85776.63
2023-06-15T01:45:36.932Z,85782.72
2023-06-15T01:48:03.162Z,85777.31
2023-06-15T01:50:29.391Z,85785.91
2023-06-15T01:52:55.526Z,85785.69
2023-06-15T01:55:21.708Z,85785.38
2023-06-15T01:57:47.884Z,85781.09
2023-06-15T02:00:14.016Z,85785.16
2023-06-15T02:02:40.192Z,85784.19
2023-06-15T02:05:06.344Z,85784.91
2023-06-15T02:07:32.497Z,85782.88
2023-06-15T02:09:58.659Z,85794.16
2023-06-15T02:12:24.810Z,85786.72
2023-06-15T02:14:50.966Z,85791.53
2023-06-15T02:17:17.121Z,85783.88
2023-06-15T02:19:43.286Z,85781.66
2023-06-15T02:22:09.462Z,85785.84
2023-06-15T02:24:35.677Z,85790.47
2023-06-15T02:27:01.856Z,85793.81
2023-06-15T02:29:28.039Z,85788.56
2023-06-15T02:31:54.165Z,85786.00
2023-06-15T02:34:20.331Z,85797.31
2023-06-15T02:36:46.519Z,85789.75
2023-06-15T02:39:12.670Z,85791.69
2023-06-15T02:41:38.804Z,85796.03
2023-06-15T02:44:04.941Z,85801.81
2023-06-15T02:46:31.104Z,85805.16
2023-06-15T02:48:57.269Z,85805.28
2023-06-15T02:51:23.417Z,85803.56
2023-06-15T02:53:49.579Z,85813.31
2023-06-15T02:56:15.746Z,85811.03
2023-06-15T02:58:41.886Z,85813.41
2023-06-15T03:01:08.021Z,85807.00
2023-06-15T03:03:34.196Z,85810.69
2023-06-15T03:08:26.573Z,85819.06
2023-06-15T03:10:52.752Z,85813.41
2023-06-15T03:13:18.906Z,85816.44
2023-06-15T03:15:45.057Z,85811.53
2023-06-15T03:18:11.248Z,85813.81
2023-06-15T03:20:37.512Z,85814.97
2023-06-15T03:23:03.721Z,85816.78
2023-06-15T03:25:29.896Z,85820.78
2023-06-15T03:27:56.256Z,85808.75
2023-06-15T03:30:22.389Z,85820.97
2023-06-15T03:32:48.545Z,85823.91
2023-06-15T03:35:14.783Z,85820.59
2023-06-15T03:37:40.945Z,85814.16
2023-06-15T03:40:07.098Z,85820.50
2023-06-15T03:42:33.262Z,85823.97
2023-06-15T03:44:59.422Z,85830.38
2023-06-15T03:47:25.644Z,85834.22
2023-06-15T03:49:51.833Z,85824.53
2023-06-15T03:52:17.979Z,85827.22
2023-06-15T03:54:44.142Z,85835.69
2023-06-15T03:57:10.311Z,85833.22
2023-06-15T03:59:36.482Z,85836.06
2023-06-15T04:02:02.664Z,85838.75
2023-06-15T04:04:28.914Z,85839.59
2023-06-15T04:06:55.108Z,85837.97
2023-06-15T04:09:21.270Z,85847.53
2023-06-15T04:11:47.444Z,85849.00
2023-06-15T04:14:13.588Z,85849.31
2023-06-15T04:16:39.725Z,85847.41
2023-06-15T04:19:05.881Z,85850.66
2023-06-15T04:21:32.020Z,85849.44
2023-06-15T04:23:58.221Z,85848.19
2023-06-15T04:26:24.415Z,85847.69
2023-06-15T04:28:50.550Z,85854.38
2023-06-15T04:31:16.715Z,85855.66
2023-06-15T04:33:42.854Z,85854.38
2023-06-15T04:36:08.990Z,85857.81
2023-06-15T04:38:35.139Z,85858.78
2023-06-15T04:41:01.838Z,85853.66
2023-06-15T04:43:28.206Z,85860.22
2023-06-15T04:45:54.371Z,85859.94
2023-06-15T04:48:20.512Z,85856.38
2023-06-15T04:50:46.701Z,85858.31
2023-06-15T04:53:12.865Z,85855.53
2023-06-15T04:55:39.018Z,85858.53
2023-06-15T04:58:05.149Z,85859.03
2023-06-15T05:00:33.644Z,85848.63
2023-06-15T05:03:00.058Z,85855.13
2023-06-15T05:05:26.362Z,85857.75
2023-06-15T05:07:52.503Z,85862.28
2023-06-15T05:10:18.658Z,85861.63
2023-06-15T05:12:44.805Z,85852.97
2023-06-15T05:15:10.975Z,85864.50
2023-06-15T05:17:37.149Z,85858.38
2023-06-15T05:20:03.406Z,85861.09
2023-06-15T05:22:29.567Z,85859.09
2023-06-15T05:24:55.727Z,85861.56
2023-06-15T05:27:21.908Z,85863.34
2023-06-15T05:29:48.076Z,85863.22
2023-06-15T05:32:14.238Z,85869.34
2023-06-15T05:34:40.373Z,85873.38
2023-06-15T05:37:06.528Z,85867.91
2023-06-15T05:39:32.693Z,85862.13
2023-06-15T05:41:58.880Z,85858.66
2023-06-15T05:44:25.050Z,85868.97
2023-06-15T05:46:51.222Z,85864.13
2023-06-15T05:49:17.384Z,85857.88
2023-06-15T05:51:43.573Z,85866.97
2023-06-15T05:54:09.784Z,85869.94
2023-06-15T05:56:35.950Z,85867.72
2023-06-15T05:59:02.093Z,85864.06
2023-06-15T06:01:28.264Z,85865.25
2023-06-15T06:03:54.449Z,85864.22
2023-06-15T06:06:20.641Z,85864.34
2023-06-15T06:08:46.828Z,85860.19
2023-06-15T06:11:12.981Z,85860.50
2023-06-15T06:13:39.161Z,85864.00
2023-06-15T06:16:05.310Z,85866.84
2023-06-15T06:18:31.585Z,85865.41
2023-06-15T06:20:57.830Z,85860.47
2023-06-15T06:23:23.987Z,85860.06
2023-06-15T06:25:50.182Z,85861.56
2023-06-15T06:28:16.350Z,85860.84
2023-06-15T06:30:42.490Z,85858.47
2023-06-15T06:33:08.725Z,85858.88
2023-06-15T06:35:34.925Z,85856.25
2023-06-15T06:38:01.056Z,85853.94
2023-06-15T06:40:27.431Z,85846.78
2023-06-15T06:42:53.623Z,85841.34
2023-06-15T06:45:20.040Z,85840.19
2023-06-15T06:47:46.415Z,85845.38
2023-06-15T06:50:12.644Z,85851.84
2023-06-15T06:52:38.797Z,85844.47
2023-06-15T06:55:04.961Z,85848.47
2023-06-15T06:57:31.136Z,85850.75
2023-06-15T06:59:57.293Z,85846.25
2023-06-15T07:02:24.599Z,85839.41
2023-06-15T07:04:50.835Z,85844.78
2023-06-15T07:07:16.974Z,85837.50
2023-06-15T07:09:43.151Z,85837.34
2023-06-15T07:12:09.320Z,85840.50
2023-06-15T07:14:35.479Z,85841.56
2023-06-15T07:17:01.675Z,85835.78
2023-06-15T07:19:27.806Z,85833.81
2023-06-15T07:21:53.965Z,85839.81
2023-06-15T07:24:20.195Z,85834.31
2023-06-15T07:26:46.381Z,85836.13
2023-06-15T07:29:12.528Z,85842.81
2023-06-15T07:31:38.702Z,85837.72
2023-06-15T07:34:04.878Z,85834.53
2023-06-15T07:36:31.047Z,85840.72
2023-06-15T07:38:57.215Z,85838.44
2023-06-15T07:41:23.398Z,85836.88
2023-06-15T07:43:49.628Z,85831.03
2023-06-15T07:46:15.794Z,85838.44
2023-06-15T07:48:41.930Z,85840.41
2023-06-15T07:51:08.117Z,85838.28
2023-06-15T07:53:34.288Z,85841.25
2023-06-15T07:56:00.492Z,85835.63
2023-06-15T07:58:26.659Z,85842.16
2023-06-15T08:00:52.797Z,85841.81
2023-06-15T08:03:19.029Z,85844.28
2023-06-15T08:05:45.288Z,85836.66
2023-06-15T08:08:11.466Z,85832.94
2023-06-15T08:10:38.263Z,85831.38
2023-06-15T08:13:05.139Z,85835.44
2023-06-15T08:15:31.323Z,85833.31
2023-06-15T08:17:57.525Z,85836.13
2023-06-15T08:20:23.765Z,85829.25
2023-06-15T08:22:49.933Z,85832.09
2023-06-15T08:25:16.094Z,85828.53
2023-06-15T08:27:42.259Z,85825.00
2023-06-15T08:30:08.678Z,85840.91
2023-06-15T08:32:34.896Z,85826.03
2023-06-15T08:35:01.058Z,85828.47
2023-06-15T08:37:27.220Z,85832.06
2023-06-15T08:39:53.364Z,85835.41
2023-06-15T08:42:19.733Z,85832.41
2023-06-15T08:44:45.921Z,85840.53
2023-06-15T08:47:12.080Z,85830.13
2023-06-15T08:49:38.239Z,85823.16
2023-06-15T08:52:04.381Z,85825.34
2023-06-15T08:54:30.549Z,85823.34
2023-06-15T08:56:56.680Z,85829.69
2023-06-15T08:59:22.841Z,85834.84
2023-06-15T09:01:49.047Z,85824.38
2023-06-15T09:04:15.241Z,85833.50
2023-06-15T09:06:41.419Z,85829.25
2023-06-15T09:09:07.584Z,85834.03
2023-06-15T09:11:34.356Z,85825.94
2023-06-15T09:14:00.601Z,85833.94
2023-06-15T09:16:26.801Z,85830.97
2023-06-15T09:18:52.988Z,85833.84
2023-06-15T09:21:19.156Z,85829.38
2023-06-15T09:23:45.345Z,85837.50
2023-06-15T09:26:11.511Z,85832.78
2023-06-15T09:28:37.663Z,85837.16
2023-06-15T09:31:03.839Z,85827.66
2023-06-15T09:33:30.010Z,85838.22
2023-06-15T09:35:56.165Z,85827.56
2023-06-15T09:38:22.351Z,85836.47
2023-06-15T09:40:48.484Z,85835.66
2023-06-15T09:43:14.631Z,85833.78
2023-06-15T09:45:40.803Z,85837.09
2023-06-15T09:48:07.137Z,85839.00
2023-06-15T09:50:33.337Z,85829.84
2023-06-15T09:52:59.484Z,85839.47
2023-06-15T09:55:25.642Z,85835.19
2023-06-15T09:57:51.820Z,85827.19
2023-06-15T10:00:18.279Z,85822.75
2023-06-15T10:02:44.778Z,85836.69
2023-06-15T10:05:11.011Z,85829.97
2023-06-15T10:07:37.157Z,85821.19
2023-06-15T10:10:03.313Z,85819.88
2023-06-15T10:12:29.488Z,85825.09
2023-06-15T10:14:55.648Z,85822.44
2023-06-15T10:17:21.819Z,85814.38
2023-06-15T10:19:47.967Z,85819.94
2023-06-15T10:22:14.134Z,85822.22
2023-06-15T10:24:40.305Z,85809.00
2023-06-15T10:27:06.477Z,85820.88
2023-06-15T10:29:32.611Z,85807.50
2023-06-15T10:31:58.778Z,85816.84
2023-06-15T10:34:24.954Z,85817.81
2023-06-15T10:36:51.120Z,85815.41
2023-06-15T10:39:17.270Z,85798.34
2023-06-15T10:41:43.529Z,85801.16
2023-06-15T10:44:09.711Z,85805.22
2023-06-15T10:46:35.868Z,85814.09
2023-06-15T10:49:02.026Z,85803.50
2023-06-15T10:51:28.173Z,85805.88
2023-06-15T10:53:54.302Z,85805.69
2023-06-15T10:56:20.464Z,85811.22
2023-06-15T10:58:46.651Z,85808.13
2023-06-15T11:01:12.775Z,85810.09
2023-06-15T11:03:38.922Z,85805.75
2023-06-15T11:06:05.105Z,85812.13
2023-06-15T11:08:31.274Z,85808.69
2023-06-15T11:10:57.443Z,85806.91
2023-06-15T11:13:23.577Z,85812.50
2023-06-15T11:15:49.714Z,85809.81
2023-06-15T11:18:15.898Z,85808.84
2023-06-15T11:20:42.188Z,85805.09
2023-06-15T11:23:08.460Z,85801.00
2023-06-15T11:25:34.687Z,85811.25
2023-06-15T11:28:00.849Z,85810.22
2023-06-15T11:30:27.002Z,85809.16
2023-06-15T11:32:53.176Z,85811.75
2023-06-15T11:35:19.356Z,85799.25
2023-06-15T11:37:45.516Z,85800.78
2023-06-15T11:40:11.882Z,85806.78
2023-06-15T11:42:38.084Z,85798.78
2023-06-15T11:45:04.225Z,85799.81
2023-06-15T11:47:30.404Z,85804.31
2023-06-15T11:49:56.670Z,85810.19
2023-06-15T11:52:22.818Z,85803.97
2023-06-15T11:54:53.813Z,85795.13
2023-06-15T11:57:20.865Z,85801.34
2023-06-15T11:59:47.026Z,85795.44
2023-06-15T12:02:13.182Z,85806.53
2023-06-15T12:04:39.451Z,85788.53
2023-06-15T12:07:05.653Z,85795.06
2023-06-15T12:09:31.952Z,85795.81
2023-06-15T12:11:58.135Z,85784.50
2023-06-15T12:14:24.310Z,85781.47
2023-06-15T12:16:50.612Z,85778.03
2023-06-15T12:19:16.818Z,85788.16
2023-06-15T12:21:42.969Z,85781.44
2023-06-15T12:24:09.175Z,85781.97
2023-06-15T12:26:35.387Z,85781.41
2023-06-15T12:29:01.553Z,85765.06
2023-06-15T12:31:27.854Z,85791.44
2023-06-15T12:33:56.403Z,85778.47
2023-06-15T12:36:22.923Z,85785.00
2023-06-15T12:38:49.122Z,85777.69
2023-06-15T12:41:15.308Z,85778.13
2023-06-15T12:43:41.440Z,85771.75
2023-06-15T12:46:07.917Z,85768.91
2023-06-15T12:48:34.080Z,85773.69
2023-06-15T12:51:00.237Z,85764.69
2023-06-15T12:53:26.400Z,85774.69
2023-06-15T12:55:52.547Z,85769.06
2023-06-15T12:58:18.704Z,85775.88
2023-06-15T13:00:44.845Z,85771.69
2023-06-15T13:03:11.095Z,85773.34
2023-06-15T13:05:37.368Z,85761.47
2023-06-15T13:08:03.540Z,85772.38
2023-06-15T13:10:29.712Z,85779.97
2023-06-15T13:12:55.911Z,85763.94
2023-06-15T13:15:22.063Z,85767.09
2023-06-15T13:17:48.261Z,85767.59
2023-06-15T13:20:14.562Z,85780.88
2023-06-15T13:22:40.770Z,85775.44
2023-06-15T13:25:06.937Z,85762.66
2023-06-15T13:27:33.099Z,85774.31
2023-06-15T13:29:59.422Z,85786.47
2023-06-15T13:32:25.607Z,85768.38
2023-06-15T13:34:51.771Z,85775.63
2023-06-15T13:37:18.037Z,85784.22
2023-06-15T13:39:44.215Z,85785.72
2023-06-15T13:42:10.393Z,85781.13
2023-06-15T13:44:36.557Z,85787.69
2023-06-15T13:47:02.715Z,85778.59
2023-06-15T13:49:28.865Z,85783.78
2023-06-15T13:51:55.052Z,85787.75
2023-06-15T13:54:21.216Z,85786.53
2023-06-15T13:56:47.378Z,85789.06
2023-06-15T13:59:13.519Z,85785.13
2023-06-15T14:01:39.678Z,85787.28
2023-06-15T14:04:05.932Z,85789.25
2023-06-15T14:06:32.210Z,85775.41
2023-06-15T14:08:58.367Z,85786.44
2023-06-15T14:11:24.525Z,85788.50
2023-06-15T14:13:50.672Z,85786.50
2023-06-15T14:16:16.980Z,85783.00
2023-06-15T14:18:43.153Z,85780.63
2023-06-15T14:21:09.311Z,85786.84
2023-06-15T14:23:37.989Z,85783.44
2023-06-15T14:26:04.158Z,85786.59
2023-06-15T14:28:30.321Z,85783.91
2023-06-15T14:30:56.487Z,85787.91
2023-06-15T14:33:22.640Z,85786.66
2023-06-15T14:35:48.775Z,85783.25
2023-06-15T14:38:15.063Z,85784.03
2023-06-15T14:40:41.200Z,85782.66
2023-06-15T14:43:07.330Z,85785.81
2023-06-15T14:45:33.536Z,85795.72
2023-06-15T14:48:03.987Z,85784.44
2023-06-15T14:50:30.181Z,85789.53
2023-06-15T14:52:56.325Z,85783.38
2023-06-15T14:55:22.492Z,85778.38
2023-06-15T14:57:48.868Z,85782.78
2023-06-15T15:00:15.347Z,85785.63
2023-06-15T15:02:41.813Z,85782.03
2023-06-15T15:05:08.019Z,85785.47
2023-06-15T15:07:35.145Z,85783.44
2023-06-15T15:10:01.958Z,85790.66
2023-06-15T15:12:28.093Z,85791.63
2023-06-15T15:14:54.248Z,85797.06
2023-06-15T15:17:20.382Z,85787.63
2023-06-15T15:19:46.508Z,85783.09
2023-06-15T15:22:12.671Z,85776.78
2023-06-15T15:24:38.873Z,85787.31
2023-06-15T15:27:05.111Z,85790.25
2023-06-15T15:29:31.393Z,85794.34
2023-06-15T15:31:57.693Z,85794.47
2023-06-15T15:34:23.913Z,85787.78
2023-06-15T15:36:50.114Z,85792.09
2023-06-15T15:39:16.330Z,85789.22
2023-06-15T15:41:42.489Z,85793.00
2023-06-15T15:44:08.671Z,85799.19
2023-06-15T15:46:34.899Z,85787.66
2023-06-15T15:49:01.460Z,85788.06
2023-06-15T15:51:27.596Z,85791.44
2023-06-15T15:53:53.824Z,85801.91
2023-06-15T15:56:19.988Z,85793.63
2023-06-15T15:58:46.169Z,85802.56
2023-06-15T16:01:12.359Z,85795.38
2023-06-15T16:03:38.618Z,85788.94
2023-06-15T16:06:04.929Z,85791.16
2023-06-15T16:08:31.081Z,85796.38
2023-06-15T16:10:57.245Z,85791.63
2023-06-15T16:13:23.401Z,85797.53
2023-06-15T16:16:01.471Z,85792.34
2023-06-15T16:18:35.674Z,85794.69
2023-06-15T16:21:01.839Z,85797.50
2023-06-15T16:23:27.997Z,85802.31
2023-06-15T16:25:54.128Z,85797.53
2023-06-15T16:28:20.295Z,85816.34
2023-06-15T16:30:46.444Z,85806.31
2023-06-15T16:33:12.664Z,85812.22
2023-06-15T16:35:38.986Z,85814.50
2023-06-15T16:38:05.324Z,85812.00
2023-06-15T16:40:31.489Z,85811.81
2023-06-15T16:42:57.662Z,85818.25
2023-06-15T16:45:23.951Z,85832.22
2023-06-15T16:47:50.194Z,85824.81
2023-06-15T16:50:16.672Z,85831.03
2023-06-15T16:52:43.216Z,85832.41
2023-06-15T16:55:09.366Z,85829.72
2023-06-15T16:57:35.497Z,85823.97
2023-06-15T17:00:01.650Z,85827.88
2023-06-15T17:02:27.888Z,85835.16
2023-06-15T17:04:54.104Z,85833.88
2023-06-15T17:07:20.297Z,85839.09
2023-06-15T17:09:46.468Z,85837.91
2023-06-15T17:12:12.629Z,85840.97
2023-06-15T17:14:38.780Z,85841.63
2023-06-15T17:17:04.947Z,85837.63
2023-06-15T17:19:31.126Z,85833.50
2023-06-15T17:21:57.285Z,85838.91
2023-06-15T17:24:23.501Z,85839.06
2023-06-15T17:26:49.697Z,85836.34
2023-06-15T17:29:15.873Z,85846.13
2023-06-15T17:31:42.012Z,85855.44
2023-06-15T17:34:08.181Z,85857.41
2023-06-15T17:36:34.332Z,85855.53
2023-06-15T17:39:00.470Z,85856.81
2023-06-15T17:41:26.638Z,85859.47
2023-06-15T17:43:52.843Z,85856.44
2023-06-15T17:46:19.140Z,85867.16
2023-06-15T17:48:45.333Z,85861.03
2023-06-15T17:51:11.497Z,85862.00
2023-06-15T17:53:37.670Z,85870.56
2023-06-15T17:56:03.835Z,85868.19
2023-06-15T17:58:29.972Z,85872.75
2023-06-15T18:00:56.139Z,85885.53
2023-06-15T18:03:22.415Z,85875.44
2023-06-15T18:05:48.690Z,85870.25
2023-06-15T18:08:14.868Z,85879.53
2023-06-15T18:10:41.020Z,85870.22
2023-06-15T18:13:07.307Z,85884.34
2023-06-15T18:15:34.939Z,85880.44
2023-06-15T18:18:01.439Z,85893.25
2023-06-15T18:20:27.620Z,85887.66
2023-06-15T18:22:54.073Z,85886.34
2023-06-15T18:25:20.461Z,85885.28
2023-06-15T18:27:46.859Z,85894.13
2023-06-15T18:30:13.003Z,85895.19
2023-06-15T18:32:39.162Z,85900.81
2023-06-15T18:35:05.360Z,85901.53
2023-06-15T18:37:31.516Z,85898.91
2023-06-15T18:39:57.683Z,85908.22
2023-06-15T18:42:23.830Z,85912.16
2023-06-15T18:44:49.984Z,85908.19
2023-06-15T18:47:16.164Z,85914.31
2023-06-15T18:49:42.306Z,85913.34
2023-06-15T18:52:08.464Z,85915.16
2023-06-15T18:54:34.601Z,85915.72
2023-06-15T18:57:00.745Z,85920.03
2023-06-15T18:59:26.900Z,85920.81
2023-06-15T19:01:53.117Z,85921.53
2023-06-15T19:04:19.283Z,85924.41
2023-06-15T19:06:45.421Z,85925.66
2023-06-15T19:09:11.570Z,85930.28
2023-06-15T19:11:37.720Z,85918.97
2023-06-15T19:14:03.909Z,85928.00
2023-06-15T19:16:30.113Z,85926.41
2023-06-15T19:18:56.273Z,85932.59
2023-06-15T19:21:22.434Z,85929.63
2023-06-15T19:23:51.394Z,85942.34
2023-06-15T19:26:17.954Z,85941.63
2023-06-15T19:28:44.151Z,85947.66
2023-06-15T19:31:10.304Z,85945.19
2023-06-15T19:33:36.470Z,85950.44
2023-06-15T19:36:02.684Z,85948.72
2023-06-15T19:38:28.964Z,85946.53
2023-06-15T19:40:57.782Z,85958.56
2023-06-15T19:43:24.509Z,85959.13
2023-06-15T19:45:50.680Z,85963.88
2023-06-15T19:48:16.935Z,85968.91
2023-06-15T19:50:43.103Z,85968.41
2023-06-15T19:53:09.268Z,85970.03
2023-06-15T19:55:35.547Z,85968.59
2023-06-15T19:58:01.705Z,85977.22
2023-06-15T20:00:28.221Z,85976.31
2023-06-15T20:02:54.425Z,85982.81
2023-06-15T20:05:20.636Z,85982.31
2023-06-15T20:07:46.792Z,85993.28
2023-06-15T20:10:12.939Z,85994.88
2023-06-15T20:12:39.102Z,86000.16
2023-06-15T20:15:05.268Z,85996.59
2023-06-15T20:17:31.411Z,86000.44
2023-06-15T20:19:57.639Z,86003.47
2023-06-15T20:22:23.795Z,86005.16
2023-06-15T20:24:49.966Z,86005.22
2023-06-15T20:27:16.240Z,86019.16
2023-06-15T20:29:42.447Z,86027.63
2023-06-15T20:32:08.819Z,86026.22
2023-06-15T20:34:34.987Z,86015.19
2023-06-15T20:37:01.137Z,86024.69
2023-06-15T20:39:27.328Z,86022.34
2023-06-15T20:41:53.469Z,86025.16
2023-06-15T20:44:19.620Z,86017.78
2023-06-15T20:46:45.795Z,86014.97
2023-06-15T20:49:12.009Z,86016.25
2023-06-15T20:51:38.213Z,86024.06
2023-06-15T20:54:04.351Z,86014.97
2023-06-15T20:56:30.594Z,86021.00
2023-06-15T20:58:56.807Z,86022.84
2023-06-15T21:01:23.309Z,86019.00
2023-06-15T21:03:49.584Z,86017.56
2023-06-15T21:06:15.803Z,86022.22
2023-06-15T21:08:41.997Z,86027.72
2023-06-15T21:11:08.171Z,86017.38
2023-06-15T21:13:34.515Z,86024.09
2023-06-15T21:16:01.248Z,86022.09
2023-06-15T21:18:27.418Z,86022.69
2023-06-15T21:20:53.602Z,86022.06
2023-06-15T21:23:19.763Z,86025.09
2023-06-15T21:25:45.929Z,86027.34
2023-06-15T21:28:12.090Z,86022.53
2023-06-15T21:30:38.250Z,86020.56
2023-06-15T21:33:04.501Z,86024.94
2023-06-15T21:35:30.666Z,86033.66
2023-06-15T21:37:56.809Z,86031.94
2023-06-15T21:40:22.970Z,86031.94
2023-06-15T21:42:49.608Z,86036.16
2023-06-15T21:45:15.867Z,86030.91
2023-06-15T21:47:42.008Z,86028.84
2023-06-15T21:50:08.179Z,86030.78
2023-06-15T21:52:34.325Z,86035.66
2023-06-15T21:55:00.504Z,86033.25
2023-06-15T21:57:26.633Z,86034.84
2023-06-15T21:59:52.772Z,86039.97
2023-06-15T22:02:18.934Z,86034.22
2023-06-15T22:04:45.098Z,86044.81
2023-06-15T22:07:11.264Z,86035.69
2023-06-15T22:09:37.407Z,86041.47
2023-06-15T22:12:04.260Z,86046.53
2023-06-15T22:14:31.244Z,86044.25
2023-06-15T22:16:57.422Z,86044.53
2023-06-15T22:19:23.598Z,86038.19
2023-06-15T22:21:49.738Z,86042.06
2023-06-15T22:24:15.909Z,86042.16
2023-06-15T22:26:42.088Z,86042.28
2023-06-15T22:29:08.234Z,86042.16
2023-06-15T22:31:34.421Z,86039.34
2023-06-15T22:34:00.916Z,86037.97
2023-06-15T22:36:27.083Z,86043.16
2023-06-15T22:38:53.291Z,86043.59
2023-06-15T22:41:19.439Z,86049.66
2023-06-15T22:43:45.627Z,86043.09
2023-06-15T22:46:11.795Z,86041.53
2023-06-15T22:48:37.926Z,86032.81
2023-06-15T22:51:04.089Z,86038.06
2023-06-15T22:53:30.240Z,86033.09
2023-06-15T22:55:56.394Z,86038.16
2023-06-15T22:58:22.540Z,86045.38
2023-06-15T23:00:48.737Z,86044.78
2023-06-15T23:03:14.982Z,86039.50
2023-06-15T23:05:41.177Z,86036.47
2023-06-15T23:08:07.337Z,86042.34
2023-06-15T23:10:33.528Z,86045.47
2023-06-15T23:12:59.656Z,86035.91
2023-06-15T23:15:25.845Z,86035.00
2023-06-15T23:17:52.173Z,86031.97
2023-06-15T23:20:18.813Z,86034.72
2023-06-15T23:22:45.441Z,86032.09
2023-06-15T23:25:11.579Z,86024.66
2023-06-15T23:27:37.715Z,86030.44
2023-06-15T23:30:03.878Z,86028.19
2023-06-15T23:32:30.077Z,86028.00
2023-06-15T23:34:56.250Z,86028.81
2023-06-15T23:37:22.410Z,86026.28
2023-06-15T23:39:48.568Z,86018.69
2023-06-15T23:42:14.728Z,86018.25
2023-06-15T23:44:40.904Z,86020.72
2023-06-15T23:47:07.154Z,86016.56
2023-06-15T23:49:33.319Z,86017.50
2023-06-15T23:51:59.479Z,86022.34
2023-06-15T23:54:25.619Z,86018.91
2023-06-15T23:56:51.766Z,86021.66
2023-06-15T23:59:17.908Z,86013.53
